sensor_id;sensor_type;location;lat;lon;timestamp;P1;durP1;ratioP1;P2;durP2;ratioP2
35444;SDS011;21562;49.476;6.086;2023-04-06T00:01:21;16.63;;;8.32;;
35444;SDS011;21562;49.476;6.086;2023-04-06T00:03:47;15.25;;;7.50;;
35444;SDS011;21562;49.476;6.086;2023-04-06T00:06:12;24.05;;;10.15;;
35444;SDS011;21562;49.476;6.086;2023-04-06T00:08:38;25.58;;;10.23;;
35444;SDS011;21562;49.476;6.086;2023-04-06T00:11:04;18.63;;;7.57;;
35444;SDS011;21562;49.476;6.086;2023-04-06T00:13:30;16.55;;;6.45;;
35444;SDS011;21562;49.476;6.086;2023-04-06T00:15:55;22.98;;;10.27;;
35444;SDS011;21562;49.476;6.086;2023-04-06T00:18:21;44.95;;;17.52;;
35444;SDS011;21562;49.476;6.086;2023-04-06T00:20:47;18.20;;;8.40;;
35444;SDS011;21562;49.476;6.086;2023-04-06T00:23:13;19.70;;;7.82;;
35444;SDS011;21562;49.476;6.086;2023-04-06T00:25:39;30.38;;;11.98;;
35444;SDS011;21562;49.476;6.086;2023-04-06T00:28:05;30.88;;;11.88;;
35444;SDS011;21562;49.476;6.086;2023-04-06T00:30:30;18.27;;;7.10;;
35444;SDS011;21562;49.476;6.086;2023-04-06T00:32:56;33.90;;;14.30;;
35444;SDS011;21562;49.476;6.086;2023-04-06T00:35:22;20.25;;;8.77;;
35444;SDS011;21562;49.476;6.086;2023-04-06T00:37:47;17.42;;;7.28;;
35444;SDS011;21562;49.476;6.086;2023-04-06T00:40:13;18.73;;;8.50;;
35444;SDS011;21562;49.476;6.086;2023-04-06T00:42:40;19.60;;;8.60;;
35444;SDS011;21562;49.476;6.086;2023-04-06T00:45:06;15.18;;;8.10;;
35444;SDS011;21562;49.476;6.086;2023-04-06T00:47:32;19.88;;;8.40;;
35444;SDS011;21562;49.476;6.086;2023-04-06T00:49:58;18.25;;;8.43;;
35444;SDS011;21562;49.476;6.086;2023-04-06T00:52:24;15.65;;;7.90;;
35444;SDS011;21562;49.476;6.086;2023-04-06T00:54:50;17.42;;;7.88;;
35444;SDS011;21562;49.476;6.086;2023-04-06T00:57:16;19.83;;;7.45;;
35444;SDS011;21562;49.476;6.086;2023-04-06T00:59:42;19.42;;;8.40;;
35444;SDS011;21562;49.476;6.086;2023-04-06T01:02:08;14.57;;;6.82;;
35444;SDS011;21562;49.476;6.086;2023-04-06T01:04:34;44.60;;;16.25;;
35444;SDS011;21562;49.476;6.086;2023-04-06T01:07:00;33.00;;;12.90;;
35444;SDS011;21562;49.476;6.086;2023-04-06T01:09:29;34.67;;;12.75;;
35444;SDS011;21562;49.476;6.086;2023-04-06T01:11:55;42.25;;;16.00;;
35444;SDS011;21562;49.476;6.086;2023-04-06T01:14:22;25.80;;;10.07;;
35444;SDS011;21562;49.476;6.086;2023-04-06T01:16:48;24.80;;;10.52;;
35444;SDS011;21562;49.476;6.086;2023-04-06T01:19:14;20.23;;;8.88;;
35444;SDS011;21562;49.476;6.086;2023-04-06T01:21:40;15.63;;;6.95;;
35444;SDS011;21562;49.476;6.086;2023-04-06T01:24:06;14.10;;;6.93;;
35444;SDS011;21562;49.476;6.086;2023-04-06T01:26:33;18.83;;;7.35;;
35444;SDS011;21562;49.476;6.086;2023-04-06T01:29:00;15.05;;;6.82;;
35444;SDS011;21562;49.476;6.086;2023-04-06T01:31:26;17.33;;;8.65;;
35444;SDS011;21562;49.476;6.086;2023-04-06T01:33:52;15.18;;;7.35;;
35444;SDS011;21562;49.476;6.086;2023-04-06T01:36:18;18.60;;;7.45;;
35444;SDS011;21562;49.476;6.086;2023-04-06T01:38:45;20.20;;;7.10;;
35444;SDS011;21562;49.476;6.086;2023-04-06T01:41:10;16.92;;;7.05;;
35444;SDS011;21562;49.476;6.086;2023-04-06T01:43:36;17.15;;;6.55;;
35444;SDS011;21562;49.476;6.086;2023-04-06T01:46:02;16.38;;;7.07;;
35444;SDS011;21562;49.476;6.086;2023-04-06T01:48:28;13.35;;;7.30;;
35444;SDS011;21562;49.476;6.086;2023-04-06T01:50:54;19.35;;;7.63;;
35444;SDS011;21562;49.476;6.086;2023-04-06T01:53:20;17.73;;;7.75;;
35444;SDS011;21562;49.476;6.086;2023-04-06T01:55:46;17.20;;;7.72;;
35444;SDS011;21562;49.476;6.086;2023-04-06T01:58:12;14.88;;;7.97;;
35444;SDS011;21562;49.476;6.086;2023-04-06T02:00:38;15.45;;;7.78;;
35444;SDS011;21562;49.476;6.086;2023-04-06T02:03:03;16.13;;;7.28;;
35444;SDS011;21562;49.476;6.086;2023-04-06T02:05:30;17.42;;;7.70;;
35444;SDS011;21562;49.476;6.086;2023-04-06T02:07:58;14.85;;;7.30;;
35444;SDS011;21562;49.476;6.086;2023-04-06T02:10:23;16.45;;;8.20;;
35444;SDS011;21562;49.476;6.086;2023-04-06T02:12:49;16.75;;;7.90;;
35444;SDS011;21562;49.476;6.086;2023-04-06T02:15:15;15.45;;;8.20;;
35444;SDS011;21562;49.476;6.086;2023-04-06T02:17:41;15.00;;;7.43;;
35444;SDS011;21562;49.476;6.086;2023-04-06T02:20:07;16.50;;;8.73;;
35444;SDS011;21562;49.476;6.086;2023-04-06T02:22:34;16.63;;;8.23;;
35444;SDS011;21562;49.476;6.086;2023-04-06T02:25:00;14.35;;;7.55;;
35444;SDS011;21562;49.476;6.086;2023-04-06T02:27:26;14.90;;;8.05;;
35444;SDS011;21562;49.476;6.086;2023-04-06T02:29:52;16.95;;;7.65;;
35444;SDS011;21562;49.476;6.086;2023-04-06T02:32:17;18.30;;;7.57;;
35444;SDS011;21562;49.476;6.086;2023-04-06T02:34:43;17.35;;;8.35;;
35444;SDS011;21562;49.476;6.086;2023-04-06T02:37:08;17.88;;;8.27;;
35444;SDS011;21562;49.476;6.086;2023-04-06T02:39:34;17.83;;;8.18;;
35444;SDS011;21562;49.476;6.086;2023-04-06T02:42:00;15.48;;;7.30;;
35444;SDS011;21562;49.476;6.086;2023-04-06T02:44:25;17.02;;;8.68;;
35444;SDS011;21562;49.476;6.086;2023-04-06T02:46:51;16.27;;;8.25;;
35444;SDS011;21562;49.476;6.086;2023-04-06T02:49:17;16.40;;;8.45;;
35444;SDS011;21562;49.476;6.086;2023-04-06T02:51:42;15.32;;;8.00;;
35444;SDS011;21562;49.476;6.086;2023-04-06T02:54:08;14.50;;;7.53;;
35444;SDS011;21562;49.476;6.086;2023-04-06T02:56:34;15.85;;;7.32;;
35444;SDS011;21562;49.476;6.086;2023-04-06T02:58:59;16.98;;;8.35;;
35444;SDS011;21562;49.476;6.086;2023-04-06T03:01:25;17.05;;;7.50;;
35444;SDS011;21562;49.476;6.086;2023-04-06T03:03:51;13.88;;;7.68;;
35444;SDS011;21562;49.476;6.086;2023-04-06T03:06:17;16.85;;;8.70;;
35444;SDS011;21562;49.476;6.086;2023-04-06T03:08:42;16.40;;;7.72;;
35444;SDS011;21562;49.476;6.086;2023-04-06T03:11:08;20.10;;;8.20;;
35444;SDS011;21562;49.476;6.086;2023-04-06T03:13:33;14.75;;;7.50;;
35444;SDS011;21562;49.476;6.086;2023-04-06T03:15:59;14.23;;;7.28;;
35444;SDS011;21562;49.476;6.086;2023-04-06T03:18:25;18.02;;;8.93;;
35444;SDS011;21562;49.476;6.086;2023-04-06T03:20:51;18.38;;;8.60;;
35444;SDS011;21562;49.476;6.086;2023-04-06T03:23:19;17.10;;;8.40;;
35444;SDS011;21562;49.476;6.086;2023-04-06T03:25:46;18.45;;;9.65;;
35444;SDS011;21562;49.476;6.086;2023-04-06T03:28:11;17.88;;;8.77;;
35444;SDS011;21562;49.476;6.086;2023-04-06T03:30:37;16.90;;;8.50;;
35444;SDS011;21562;49.476;6.086;2023-04-06T03:33:03;17.73;;;8.43;;
35444;SDS011;21562;49.476;6.086;2023-04-06T03:35:28;17.95;;;8.65;;
35444;SDS011;21562;49.476;6.086;2023-04-06T03:37:54;18.00;;;8.07;;
35444;SDS011;21562;49.476;6.086;2023-04-06T03:40:20;18.52;;;8.23;;
35444;SDS011;21562;49.476;6.086;2023-04-06T03:42:45;16.30;;;8.23;;
35444;SDS011;21562;49.476;6.086;2023-04-06T03:45:11;15.25;;;8.70;;
35444;SDS011;21562;49.476;6.086;2023-04-06T03:47:38;16.90;;;8.25;;
35444;SDS011;21562;49.476;6.086;2023-04-06T03:50:04;14.85;;;8.65;;
35444;SDS011;21562;49.476;6.086;2023-04-06T03:52:31;16.70;;;8.68;;
35444;SDS011;21562;49.476;6.086;2023-04-06T03:54:56;17.67;;;8.70;;
35444;SDS011;21562;49.476;6.086;2023-04-06T03:57:22;18.52;;;7.75;;
35444;SDS011;21562;49.476;6.086;2023-04-06T03:59:48;17.50;;;7.80;;
35444;SDS011;21562;49.476;6.086;2023-04-06T04:02:13;18.83;;;8.73;;
35444;SDS011;21562;49.476;6.086;2023-04-06T04:04:39;17.73;;;8.98;;
35444;SDS011;21562;49.476;6.086;2023-04-06T04:07:05;21.60;;;8.32;;
35444;SDS011;21562;49.476;6.086;2023-04-06T04:09:30;17.85;;;8.38;;
35444;SDS011;21562;49.476;6.086;2023-04-06T04:11:56;14.68;;;8.25;;
35444;SDS011;21562;49.476;6.086;2023-04-06T04:14:22;20.33;;;8.93;;
35444;SDS011;21562;49.476;6.086;2023-04-06T04:16:47;13.88;;;7.38;;
35444;SDS011;21562;49.476;6.086;2023-04-06T04:19:13;16.50;;;8.20;;
35444;SDS011;21562;49.476;6.086;2023-04-06T04:21:42;15.63;;;7.75;;
35444;SDS011;21562;49.476;6.086;2023-04-06T04:24:12;22.40;;;10.38;;
35444;SDS011;21562;49.476;6.086;2023-04-06T04:26:38;15.82;;;7.68;;
35444;SDS011;21562;49.476;6.086;2023-04-06T04:29:04;15.40;;;7.88;;
35444;SDS011;21562;49.476;6.086;2023-04-06T04:31:30;15.40;;;7.90;;
35444;SDS011;21562;49.476;6.086;2023-04-06T04:33:57;19.10;;;8.43;;
35444;SDS011;21562;49.476;6.086;2023-04-06T04:36:23;19.80;;;8.82;;
35444;SDS011;21562;49.476;6.086;2023-04-06T04:38:50;20.08;;;9.27;;
35444;SDS011;21562;49.476;6.086;2023-04-06T04:41:16;16.85;;;8.20;;
35444;SDS011;21562;49.476;6.086;2023-04-06T04:43:42;21.23;;;9.25;;
35444;SDS011;21562;49.476;6.086;2023-04-06T04:46:07;20.67;;;9.02;;
35444;SDS011;21562;49.476;6.086;2023-04-06T04:48:33;19.13;;;8.93;;
35444;SDS011;21562;49.476;6.086;2023-04-06T04:50:59;18.58;;;8.52;;
35444;SDS011;21562;49.476;6.086;2023-04-06T04:53:25;17.77;;;9.60;;
35444;SDS011;21562;49.476;6.086;2023-04-06T04:55:50;15.30;;;8.30;;
35444;SDS011;21562;49.476;6.086;2023-04-06T04:58:16;19.48;;;8.75;;
35444;SDS011;21562;49.476;6.086;2023-04-06T05:00:43;19.20;;;8.50;;
35444;SDS011;21562;49.476;6.086;2023-04-06T05:03:09;19.15;;;8.40;;
35444;SDS011;21562;49.476;6.086;2023-04-06T05:05:43;16.05;;;8.13;;
35444;SDS011;21562;49.476;6.086;2023-04-06T05:08:08;17.45;;;8.65;;
35444;SDS011;21562;49.476;6.086;2023-04-06T05:10:34;16.88;;;7.85;;
35444;SDS011;21562;49.476;6.086;2023-04-06T05:13:00;19.25;;;8.93;;
35444;SDS011;21562;49.476;6.086;2023-04-06T05:15:26;18.40;;;8.90;;
35444;SDS011;21562;49.476;6.086;2023-04-06T05:17:51;17.95;;;8.55;;
35444;SDS011;21562;49.476;6.086;2023-04-06T05:20:17;18.85;;;9.10;;
35444;SDS011;21562;49.476;6.086;2023-04-06T05:22:43;21.52;;;8.93;;
35444;SDS011;21562;49.476;6.086;2023-04-06T05:25:08;18.52;;;8.95;;
35444;SDS011;21562;49.476;6.086;2023-04-06T05:27:34;22.70;;;9.57;;
35444;SDS011;21562;49.476;6.086;2023-04-06T05:30:00;21.95;;;10.68;;
35444;SDS011;21562;49.476;6.086;2023-04-06T05:32:27;25.20;;;11.50;;
35444;SDS011;21562;49.476;6.086;2023-04-06T05:34:53;21.65;;;8.98;;
35444;SDS011;21562;49.476;6.086;2023-04-06T05:37:18;22.92;;;10.52;;
35444;SDS011;21562;49.476;6.086;2023-04-06T05:39:44;19.88;;;9.85;;
35444;SDS011;21562;49.476;6.086;2023-04-06T05:42:10;20.73;;;9.25;;
35444;SDS011;21562;49.476;6.086;2023-04-06T05:44:36;22.83;;;9.73;;
35444;SDS011;21562;49.476;6.086;2023-04-06T05:47:02;22.65;;;9.60;;
35444;SDS011;21562;49.476;6.086;2023-04-06T05:49:28;19.02;;;9.93;;
35444;SDS011;21562;49.476;6.086;2023-04-06T05:51:54;24.45;;;9.55;;
35444;SDS011;21562;49.476;6.086;2023-04-06T05:54:20;21.20;;;9.35;;
35444;SDS011;21562;49.476;6.086;2023-04-06T05:56:46;19.88;;;10.07;;
35444;SDS011;21562;49.476;6.086;2023-04-06T05:59:11;18.67;;;9.20;;
35444;SDS011;21562;49.476;6.086;2023-04-06T06:01:37;21.17;;;10.13;;
35444;SDS011;21562;49.476;6.086;2023-04-06T06:04:03;19.38;;;9.07;;
35444;SDS011;21562;49.476;6.086;2023-04-06T06:06:29;25.98;;;9.40;;
35444;SDS011;21562;49.476;6.086;2023-04-06T06:08:55;20.27;;;8.98;;
35444;SDS011;21562;49.476;6.086;2023-04-06T06:11:24;20.27;;;10.30;;
35444;SDS011;21562;49.476;6.086;2023-04-06T06:13:50;18.35;;;9.50;;
35444;SDS011;21562;49.476;6.086;2023-04-06T06:16:16;23.23;;;9.82;;
35444;SDS011;21562;49.476;6.086;2023-04-06T06:18:43;16.00;;;8.40;;
35444;SDS011;21562;49.476;6.086;2023-04-06T06:21:09;33.75;;;14.00;;
35444;SDS011;21562;49.476;6.086;2023-04-06T06:23:36;21.08;;;10.02;;
35444;SDS011;21562;49.476;6.086;2023-04-06T06:26:02;19.27;;;9.55;;
35444;SDS011;21562;49.476;6.086;2023-04-06T06:28:28;18.30;;;10.02;;
35444;SDS011;21562;49.476;6.086;2023-04-06T06:30:54;22.30;;;9.70;;
35444;SDS011;21562;49.476;6.086;2023-04-06T06:33:19;23.52;;;10.50;;
35444;SDS011;21562;49.476;6.086;2023-04-06T06:35:45;25.05;;;10.32;;
35444;SDS011;21562;49.476;6.086;2023-04-06T06:38:11;32.13;;;12.43;;
35444;SDS011;21562;49.476;6.086;2023-04-06T06:40:36;29.08;;;11.75;;
35444;SDS011;21562;49.476;6.086;2023-04-06T06:43:02;23.35;;;12.27;;
35444;SDS011;21562;49.476;6.086;2023-04-06T06:45:28;26.75;;;11.38;;
35444;SDS011;21562;49.476;6.086;2023-04-06T06:47:54;23.20;;;12.48;;
35444;SDS011;21562;49.476;6.086;2023-04-06T06:50:20;32.85;;;12.85;;
35444;SDS011;21562;49.476;6.086;2023-04-06T06:52:45;26.02;;;13.02;;
35444;SDS011;21562;49.476;6.086;2023-04-06T06:55:11;25.92;;;11.68;;
35444;SDS011;21562;49.476;6.086;2023-04-06T06:57:37;25.58;;;11.63;;
35444;SDS011;21562;49.476;6.086;2023-04-06T07:00:03;29.17;;;13.18;;
35444;SDS011;21562;49.476;6.086;2023-04-06T07:02:30;24.92;;;12.45;;
35444;SDS011;21562;49.476;6.086;2023-04-06T07:04:56;25.55;;;13.48;;
35444;SDS011;21562;49.476;6.086;2023-04-06T07:07:22;27.55;;;12.30;;
35444;SDS011;21562;49.476;6.086;2023-04-06T07:09:47;24.63;;;11.60;;
35444;SDS011;21562;49.476;6.086;2023-04-06T07:12:13;24.88;;;11.25;;
35444;SDS011;21562;49.476;6.086;2023-04-06T07:14:38;20.20;;;10.02;;
35444;SDS011;21562;49.476;6.086;2023-04-06T07:17:04;23.67;;;9.43;;
35444;SDS011;21562;49.476;6.086;2023-04-06T07:19:30;15.65;;;7.55;;
35444;SDS011;21562;49.476;6.086;2023-04-06T07:21:55;14.63;;;7.63;;
35444;SDS011;21562;49.476;6.086;2023-04-06T07:24:21;17.08;;;8.35;;
35444;SDS011;21562;49.476;6.086;2023-04-06T07:26:47;17.10;;;7.60;;
35444;SDS011;21562;49.476;6.086;2023-04-06T07:29:12;19.35;;;8.20;;
35444;SDS011;21562;49.476;6.086;2023-04-06T07:31:38;17.45;;;7.78;;
35444;SDS011;21562;49.476;6.086;2023-04-06T07:34:03;18.38;;;8.15;;
35444;SDS011;21562;49.476;6.086;2023-04-06T07:36:30;22.25;;;9.23;;
35444;SDS011;21562;49.476;6.086;2023-04-06T07:38:55;17.85;;;7.93;;
35444;SDS011;21562;49.476;6.086;2023-04-06T07:41:21;17.25;;;8.18;;
35444;SDS011;21562;49.476;6.086;2023-04-06T07:43:46;17.25;;;8.18;;
35444;SDS011;21562;49.476;6.086;2023-04-06T07:46:13;16.25;;;7.88;;
35444;SDS011;21562;49.476;6.086;2023-04-06T07:48:38;18.40;;;8.57;;
35444;SDS011;21562;49.476;6.086;2023-04-06T07:51:05;21.35;;;9.40;;
35444;SDS011;21562;49.476;6.086;2023-04-06T07:53:31;23.00;;;9.07;;
35444;SDS011;21562;49.476;6.086;2023-04-06T07:56:00;19.05;;;8.98;;
35444;SDS011;21562;49.476;6.086;2023-04-06T07:58:25;21.92;;;8.80;;
35444;SDS011;21562;49.476;6.086;2023-04-06T08:00:51;23.83;;;9.25;;
35444;SDS011;21562;49.476;6.086;2023-04-06T08:03:17;23.73;;;9.10;;
35444;SDS011;21562;49.476;6.086;2023-04-06T08:05:42;18.13;;;8.48;;
35444;SDS011;21562;49.476;6.086;2023-04-06T08:08:08;22.25;;;8.32;;
35444;SDS011;21562;49.476;6.086;2023-04-06T08:10:34;20.65;;;9.00;;
35444;SDS011;21562;49.476;6.086;2023-04-06T08:13:00;24.02;;;10.77;;
35444;SDS011;21562;49.476;6.086;2023-04-06T08:15:26;26.52;;;12.90;;
35444;SDS011;21562;49.476;6.086;2023-04-06T08:17:51;30.23;;;13.90;;
35444;SDS011;21562;49.476;6.086;2023-04-06T08:20:17;27.17;;;14.05;;
35444;SDS011;21562;49.476;6.086;2023-04-06T08:22:43;28.33;;;13.38;;
35444;SDS011;21562;49.476;6.086;2023-04-06T08:25:08;32.17;;;14.68;;
35444;SDS011;21562;49.476;6.086;2023-04-06T08:27:34;34.63;;;15.57;;
35444;SDS011;21562;49.476;6.086;2023-04-06T08:30:00;32.47;;;14.38;;
35444;SDS011;21562;49.476;6.086;2023-04-06T08:32:26;31.88;;;15.05;;
35444;SDS011;21562;49.476;6.086;2023-04-06T08:34:54;27.38;;;13.60;;
35444;SDS011;21562;49.476;6.086;2023-04-06T08:37:21;32.17;;;14.77;;
35444;SDS011;21562;49.476;6.086;2023-04-06T08:39:47;29.88;;;13.10;;
35444;SDS011;21562;49.476;6.086;2023-04-06T08:42:14;28.52;;;14.63;;
35444;SDS011;21562;49.476;6.086;2023-04-06T08:44:45;29.95;;;14.50;;
35444;SDS011;21562;49.476;6.086;2023-04-06T08:47:13;27.10;;;13.20;;
35444;SDS011;21562;49.476;6.086;2023-04-06T08:49:39;34.80;;;14.65;;
35444;SDS011;21562;49.476;6.086;2023-04-06T08:52:07;30.55;;;12.65;;
35444;SDS011;21562;49.476;6.086;2023-04-06T08:54:33;32.20;;;13.32;;
35444;SDS011;21562;49.476;6.086;2023-04-06T08:56:59;30.20;;;13.93;;
35444;SDS011;21562;49.476;6.086;2023-04-06T08:59:26;31.85;;;15.48;;
35444;SDS011;21562;49.476;6.086;2023-04-06T09:01:52;24.83;;;12.70;;
35444;SDS011;21562;49.476;6.086;2023-04-06T09:04:19;28.92;;;13.45;;
35444;SDS011;21562;49.476;6.086;2023-04-06T09:06:45;28.15;;;13.90;;
35444;SDS011;21562;49.476;6.086;2023-04-06T09:09:11;26.88;;;13.15;;
35444;SDS011;21562;49.476;6.086;2023-04-06T09:11:46;30.15;;;12.40;;
35444;SDS011;21562;49.476;6.086;2023-04-06T09:14:13;27.98;;;12.98;;
35444;SDS011;21562;49.476;6.086;2023-04-06T09:16:43;25.27;;;12.68;;
35444;SDS011;21562;49.476;6.086;2023-04-06T09:19:10;30.60;;;12.88;;
35444;SDS011;21562;49.476;6.086;2023-04-06T09:21:37;23.52;;;10.00;;
35444;SDS011;21562;49.476;6.086;2023-04-06T09:24:05;26.33;;;12.88;;
35444;SDS011;21562;49.476;6.086;2023-04-06T09:26:32;24.48;;;11.75;;
35444;SDS011;21562;49.476;6.086;2023-04-06T09:28:59;22.00;;;12.30;;
35444;SDS011;21562;49.476;6.086;2023-04-06T09:31:29;23.80;;;11.13;;
35444;SDS011;21562;49.476;6.086;2023-04-06T09:33:58;24.45;;;9.57;;
35444;SDS011;21562;49.476;6.086;2023-04-06T09:36:31;23.30;;;9.35;;
35444;SDS011;21562;49.476;6.086;2023-04-06T09:38:59;20.05;;;7.82;;
35444;SDS011;21562;49.476;6.086;2023-04-06T09:41:29;19.83;;;9.40;;
35444;SDS011;21562;49.476;6.086;2023-04-06T09:44:06;17.80;;;8.55;;
35444;SDS011;21562;49.476;6.086;2023-04-06T09:46:35;21.52;;;8.35;;
35444;SDS011;21562;49.476;6.086;2023-04-06T09:49:04;18.73;;;8.13;;
35444;SDS011;21562;49.476;6.086;2023-04-06T09:51:36;23.67;;;8.93;;
35444;SDS011;21562;49.476;6.086;2023-04-06T09:54:03;16.92;;;8.00;;
35444;SDS011;21562;49.476;6.086;2023-04-06T09:59:17;16.67;;;7.25;;
35444;SDS011;21562;49.476;6.086;2023-04-06T10:01:50;16.90;;;6.63;;
35444;SDS011;21562;49.476;6.086;2023-04-06T10:04:21;14.50;;;7.35;;
35444;SDS011;21562;49.476;6.086;2023-04-06T10:06:57;16.60;;;7.40;;
35444;SDS011;21562;49.476;6.086;2023-04-06T10:09:24;17.13;;;7.32;;
35444;SDS011;21562;49.476;6.086;2023-04-06T10:11:53;15.80;;;7.53;;
35444;SDS011;21562;49.476;6.086;2023-04-06T10:14:19;20.38;;;7.63;;
35444;SDS011;21562;49.476;6.086;2023-04-06T10:16:45;17.77;;;8.27;;
35444;SDS011;21562;49.476;6.086;2023-04-06T10:19:16;16.20;;;7.35;;
35444;SDS011;21562;49.476;6.086;2023-04-06T10:21:48;14.77;;;7.03;;
35444;SDS011;21562;49.476;6.086;2023-04-06T10:24:17;15.70;;;6.80;;
35444;SDS011;21562;49.476;6.086;2023-04-06T10:26:43;15.25;;;7.30;;
35444;SDS011;21562;49.476;6.086;2023-04-06T10:29:08;16.15;;;6.57;;
35444;SDS011;21562;49.476;6.086;2023-04-06T10:31:39;16.33;;;7.88;;
35444;SDS011;21562;49.476;6.086;2023-04-06T10:34:07;15.85;;;6.85;;
35444;SDS011;21562;49.476;6.086;2023-04-06T10:36:33;12.90;;;6.32;;
35444;SDS011;21562;49.476;6.086;2023-04-06T10:39:00;13.90;;;7.10;;
35444;SDS011;21562;49.476;6.086;2023-04-06T10:41:41;15.02;;;7.10;;
35444;SDS011;21562;49.476;6.086;2023-04-06T10:44:07;16.40;;;6.65;;
35444;SDS011;21562;49.476;6.086;2023-04-06T10:46:41;12.52;;;6.25;;
35444;SDS011;21562;49.476;6.086;2023-04-06T10:49:18;14.40;;;6.75;;
35444;SDS011;21562;49.476;6.086;2023-04-06T10:51:44;12.05;;;5.75;;
35444;SDS011;21562;49.476;6.086;2023-04-06T10:54:10;10.75;;;5.38;;
35444;SDS011;21562;49.476;6.086;2023-04-06T10:56:37;10.90;;;6.13;;
35444;SDS011;21562;49.476;6.086;2023-04-06T10:59:04;11.15;;;5.95;;
35444;SDS011;21562;49.476;6.086;2023-04-06T11:01:31;13.10;;;6.22;;
35444;SDS011;21562;49.476;6.086;2023-04-06T11:03:57;10.75;;;5.63;;
35444;SDS011;21562;49.476;6.086;2023-04-06T11:06:25;12.75;;;5.80;;
35444;SDS011;21562;49.476;6.086;2023-04-06T11:08:54;12.73;;;5.25;;
35444;SDS011;21562;49.476;6.086;2023-04-06T11:11:20;15.98;;;6.47;;
35444;SDS011;21562;49.476;6.086;2023-04-06T11:21:39;13.05;;;5.65;;
35444;SDS011;21562;49.476;6.086;2023-04-06T11:29:08;13.18;;;6.32;;
35444;SDS011;21562;49.476;6.086;2023-04-06T11:31:38;11.75;;;5.72;;
35444;SDS011;21562;49.476;6.086;2023-04-06T11:34:13;13.68;;;6.63;;
35444;SDS011;21562;49.476;6.086;2023-04-06T11:36:47;12.27;;;6.45;;
35444;SDS011;21562;49.476;6.086;2023-04-06T11:39:24;10.35;;;5.47;;
35444;SDS011;21562;49.476;6.086;2023-04-06T11:41:51;9.02;;;4.18;;
35444;SDS011;21562;49.476;6.086;2023-04-06T11:47:04;11.20;;;5.18;;
35444;SDS011;21562;49.476;6.086;2023-04-06T11:49:32;9.05;;;4.85;;
35444;SDS011;21562;49.476;6.086;2023-04-06T11:52:01;7.78;;;4.22;;
35444;SDS011;21562;49.476;6.086;2023-04-06T11:54:34;7.60;;;3.92;;
35444;SDS011;21562;49.476;6.086;2023-04-06T11:57:02;6.20;;;3.58;;
35444;SDS011;21562;49.476;6.086;2023-04-06T11:59:28;4.97;;;2.80;;
35444;SDS011;21562;49.476;6.086;2023-04-06T12:01:55;7.95;;;3.10;;
35444;SDS011;21562;49.476;6.086;2023-04-06T12:04:21;3.67;;;2.80;;
35444;SDS011;21562;49.476;6.086;2023-04-06T12:06:47;4.95;;;2.60;;
35444;SDS011;21562;49.476;6.086;2023-04-06T12:09:13;5.25;;;2.58;;
35444;SDS011;21562;49.476;6.086;2023-04-06T12:11:38;10.02;;;3.28;;
35444;SDS011;21562;49.476;6.086;2023-04-06T12:14:05;7.60;;;3.15;;
35444;SDS011;21562;49.476;6.086;2023-04-06T12:16:32;7.25;;;3.38;;
35444;SDS011;21562;49.476;6.086;2023-04-06T12:18:59;5.32;;;2.85;;
35444;SDS011;21562;49.476;6.086;2023-04-06T12:21:29;4.65;;;2.78;;
35444;SDS011;21562;49.476;6.086;2023-04-06T12:23:58;6.38;;;3.13;;
35444;SDS011;21562;49.476;6.086;2023-04-06T12:26:25;8.75;;;3.20;;
35444;SDS011;21562;49.476;6.086;2023-04-06T12:28:51;7.13;;;3.03;;
35444;SDS011;21562;49.476;6.086;2023-04-06T12:31:18;5.45;;;3.25;;
35444;SDS011;21562;49.476;6.086;2023-04-06T12:33:46;7.38;;;3.30;;
35444;SDS011;21562;49.476;6.086;2023-04-06T12:36:13;7.80;;;3.22;;
35444;SDS011;21562;49.476;6.086;2023-04-06T12:38:41;7.47;;;3.40;;
35444;SDS011;21562;49.476;6.086;2023-04-06T12:41:09;9.15;;;4.20;;
35444;SDS011;21562;49.476;6.086;2023-04-06T12:43:35;8.00;;;3.90;;
35444;SDS011;21562;49.476;6.086;2023-04-06T12:46:01;6.82;;;3.47;;
35444;SDS011;21562;49.476;6.086;2023-04-06T12:48:26;7.78;;;3.47;;
35444;SDS011;21562;49.476;6.086;2023-04-06T12:50:58;8.02;;;4.57;;
35444;SDS011;21562;49.476;6.086;2023-04-06T12:53:25;5.97;;;3.63;;
35444;SDS011;21562;49.476;6.086;2023-04-06T12:55:52;8.18;;;3.83;;
35444;SDS011;21562;49.476;6.086;2023-04-06T12:58:19;9.50;;;3.83;;
35444;SDS011;21562;49.476;6.086;2023-04-06T13:00:46;5.72;;;3.15;;
35444;SDS011;21562;49.476;6.086;2023-04-06T13:03:13;4.72;;;3.22;;
35444;SDS011;21562;49.476;6.086;2023-04-06T13:05:48;8.02;;;3.42;;
35444;SDS011;21562;49.476;6.086;2023-04-06T13:08:16;4.40;;;2.88;;
35444;SDS011;21562;49.476;6.086;2023-04-06T13:10:44;7.70;;;3.75;;
35444;SDS011;21562;49.476;6.086;2023-04-06T13:13:14;6.70;;;3.70;;
35444;SDS011;21562;49.476;6.086;2023-04-06T13:15:40;4.82;;;3.03;;
35444;SDS011;21562;49.476;6.086;2023-04-06T13:18:06;5.70;;;3.22;;
35444;SDS011;21562;49.476;6.086;2023-04-06T13:20:32;5.97;;;3.50;;
35444;SDS011;21562;49.476;6.086;2023-04-06T13:22:58;7.35;;;3.70;;
35444;SDS011;21562;49.476;6.086;2023-04-06T13:25:24;8.27;;;3.92;;
35444;SDS011;21562;49.476;6.086;2023-04-06T13:27:49;9.95;;;3.97;;
35444;SDS011;21562;49.476;6.086;2023-04-06T13:30:15;9.88;;;4.57;;
35444;SDS011;21562;49.476;6.086;2023-04-06T13:32:41;10.15;;;4.78;;
35444;SDS011;21562;49.476;6.086;2023-04-06T13:35:07;9.20;;;4.07;;
35444;SDS011;21562;49.476;6.086;2023-04-06T13:37:33;6.90;;;4.13;;
35444;SDS011;21562;49.476;6.086;2023-04-06T13:40:00;12.18;;;4.60;;
35444;SDS011;21562;49.476;6.086;2023-04-06T13:42:27;8.00;;;4.18;;
35444;SDS011;21562;49.476;6.086;2023-04-06T13:44:53;7.72;;;4.50;;
35444;SDS011;21562;49.476;6.086;2023-04-06T13:47:19;8.80;;;4.38;;
35444;SDS011;21562;49.476;6.086;2023-04-06T13:49:45;11.32;;;4.45;;
35444;SDS011;21562;49.476;6.086;2023-04-06T13:52:11;8.75;;;4.53;;
35444;SDS011;21562;49.476;6.086;2023-04-06T13:54:37;10.02;;;5.28;;
35444;SDS011;21562;49.476;6.086;2023-04-06T13:57:03;10.60;;;4.97;;
35444;SDS011;21562;49.476;6.086;2023-04-06T13:59:36;9.80;;;4.78;;
35444;SDS011;21562;49.476;6.086;2023-04-06T14:02:02;11.82;;;5.07;;
35444;SDS011;21562;49.476;6.086;2023-04-06T14:04:28;8.32;;;4.88;;
35444;SDS011;21562;49.476;6.086;2023-04-06T14:06:55;12.60;;;5.82;;
35444;SDS011;21562;49.476;6.086;2023-04-06T14:09:21;11.80;;;5.13;;
35444;SDS011;21562;49.476;6.086;2023-04-06T14:11:46;11.10;;;5.55;;
35444;SDS011;21562;49.476;6.086;2023-04-06T14:14:12;9.55;;;5.78;;
35444;SDS011;21562;49.476;6.086;2023-04-06T14:16:39;13.45;;;5.93;;
35444;SDS011;21562;49.476;6.086;2023-04-06T14:19:06;10.20;;;5.85;;
35444;SDS011;21562;49.476;6.086;2023-04-06T14:21:32;12.55;;;5.65;;
35444;SDS011;21562;49.476;6.086;2023-04-06T14:23:57;11.57;;;5.18;;
35444;SDS011;21562;49.476;6.086;2023-04-06T14:26:23;10.60;;;5.55;;
35444;SDS011;21562;49.476;6.086;2023-04-06T14:28:49;12.27;;;5.65;;
35444;SDS011;21562;49.476;6.086;2023-04-06T14:31:15;9.07;;;4.68;;
35444;SDS011;21562;49.476;6.086;2023-04-06T14:33:41;8.32;;;4.63;;
35444;SDS011;21562;49.476;6.086;2023-04-06T14:36:07;9.20;;;5.00;;
35444;SDS011;21562;49.476;6.086;2023-04-06T14:38:34;12.15;;;5.93;;
35444;SDS011;21562;49.476;6.086;2023-04-06T14:41:00;9.25;;;4.97;;
35444;SDS011;21562;49.476;6.086;2023-04-06T14:43:26;10.65;;;5.30;;
35444;SDS011;21562;49.476;6.086;2023-04-06T14:45:52;10.68;;;5.15;;
35444;SDS011;21562;49.476;6.086;2023-04-06T14:48:17;9.48;;;4.68;;